createdAt,value
2023-02-08T00:00:53.167Z,15.00
2023-02-08T00:06:01.910Z,9.30
2023-02-08T00:16:09.397Z,9.20
2023-02-08T00:21:17.169Z,10.60
2023-02-08T00:26:20.988Z,10.30
2023-02-08T00:31:24.149Z,10.10
2023-02-08T00:36:27.222Z,9.10
2023-02-08T00:41:30.506Z,11.90
2023-02-08T00:51:36.715Z,11.80
2023-02-08T00:56:39.821Z,8.90
2023-02-08T01:01:43.049Z,9.60
2023-02-08T01:11:49.139Z,13.90
2023-02-08T01:21:56.528Z,9.50
2023-02-08T01:26:59.987Z,10.50
2023-02-08T01:32:03.088Z,9.80
2023-02-08T01:37:06.406Z,7.70
2023-02-08T01:42:18.988Z,9.60
2023-02-08T01:47:22.131Z,9.30
2023-02-08T01:52:29.063Z,13.10
2023-02-08T01:57:32.440Z,9.10
2023-02-08T02:07:40.052Z,9.00
2023-02-08T02:12:44.114Z,9.60
2023-02-08T02:17:47.730Z,7.90
2023-02-08T02:23:09.676Z,9.50
2023-02-08T02:28:34.493Z,8.70
2023-02-08T02:34:00.638Z,10.10
2023-02-08T02:39:25.357Z,9.90
2023-02-08T02:44:54.775Z,8.60
2023-02-08T02:50:15.389Z,11.90
2023-02-08T02:55:23.389Z,13.20
2023-02-08T03:00:29.069Z,8.70
2023-02-08T03:05:32.135Z,9.00
2023-02-08T03:11:05.191Z,10.80
2023-02-08T03:16:08.617Z,6.90
2023-02-08T03:21:26.868Z,9.40
2023-02-08T03:26:43.691Z,9.20
2023-02-08T03:32:21.820Z,8.20
2023-02-08T03:37:33.630Z,9.50
2023-02-08T03:42:38.987Z,8.10
2023-02-08T03:47:46.399Z,10.10
2023-02-08T03:52:51.853Z,10.00
2023-02-08T03:58:17.586Z,9.70
2023-02-08T04:03:25.068Z,8.50
2023-02-08T04:08:28.509Z,10.90
2023-02-08T04:13:31.513Z,8.80
2023-02-08T04:18:34.619Z,8.20
2023-02-08T04:28:40.725Z,9.70
2023-02-08T04:38:47.243Z,7.50
2023-02-08T04:43:50.245Z,9.70
2023-02-08T04:48:53.464Z,7.90
2023-02-08T04:53:56.562Z,10.20
2023-02-08T04:58:59.565Z,10.90
2023-02-08T05:04:02.569Z,11.30
2023-02-08T05:09:09.019Z,9.90
2023-02-08T05:14:12.051Z,8.10
2023-02-08T05:19:15.155Z,25.60
2023-02-08T05:24:18.263Z,12.10
2023-02-08T05:29:21.363Z,9.70
2023-02-08T05:34:25.289Z,10.20
2023-02-08T05:39:28.911Z,9.60
2023-02-08T05:49:35.219Z,9.50
2023-02-08T05:59:41.235Z,8.50
2023-02-08T06:09:48.592Z,8.40
2023-02-08T06:14:51.866Z,8.90
2023-02-08T06:19:54.981Z,8.90
2023-02-08T06:24:58.083Z,10.10
2023-02-08T06:30:01.090Z,9.90
2023-02-08T06:35:06.906Z,10.10
2023-02-08T06:40:10.821Z,8.80
2023-02-08T06:45:14.187Z,9.00
2023-02-08T06:50:17.610Z,9.60
2023-02-08T06:55:21.014Z,7.90
2023-02-08T07:00:24.678Z,9.00
2023-02-08T07:05:28.150Z,9.80
2023-02-08T07:10:31.360Z,10.10
2023-02-08T07:15:35.841Z,11.00
2023-02-08T07:20:40.125Z,10.00
2023-02-08T07:25:43.744Z,10.00
2023-02-08T07:30:47.842Z,10.10
2023-02-08T07:35:51.838Z,9.90
2023-02-08T07:41:01.970Z,10.10
2023-02-08T07:46:16.677Z,10.30
2023-02-08T07:51:20.264Z,10.10
2023-02-08T07:56:23.679Z,11.00
2023-02-08T08:01:27.430Z,14.20
2023-02-08T08:06:30.610Z,9.60
2023-02-08T08:11:33.988Z,9.90
2023-02-08T08:16:37.581Z,10.20
2023-02-08T08:21:41.264Z,11.00
2023-02-08T08:26:44.368Z,15.60
2023-02-08T08:31:48.025Z,10.50
2023-02-08T08:36:51.363Z,10.90
2023-02-08T08:41:59.031Z,11.00
2023-02-08T08:47:02.524Z,11.40
2023-02-08T08:52:08.189Z,11.90
2023-02-08T08:57:11.497Z,11.60
2023-02-08T09:02:15.626Z,10.30
2023-02-08T09:07:18.733Z,15.60
2023-02-08T09:12:21.934Z,10.90
2023-02-08T09:17:25.352Z,12.70
2023-02-08T09:22:28.901Z,17.40
2023-02-08T09:27:32.385Z,12.30
2023-02-08T09:32:37.059Z,14.80
2023-02-08T09:37:41.148Z,11.50
2023-02-08T09:42:55.110Z,12.60
2023-02-08T09:48:10.606Z,12.20
2023-02-08T09:53:22.724Z,10.40
2023-02-08T09:58:39.245Z,11.80
2023-02-08T10:03:45.306Z,11.80
2023-02-08T10:08:52.438Z,11.50
2023-02-08T10:14:28.010Z,12.60
2023-02-08T10:19:43.445Z,17.00
2023-02-08T10:24:49.457Z,13.80
2023-02-08T10:30:06.034Z,15.00
2023-02-08T10:35:18.836Z,14.70
2023-02-08T10:40:36.382Z,14.00
2023-02-08T10:46:15.216Z,15.10
2023-02-08T10:51:31.548Z,11.60
2023-02-08T10:56:57.937Z,14.80
2023-02-08T11:02:54.752Z,13.90
2023-02-08T11:08:27.604Z,12.30
2023-02-08T11:13:41.476Z,15.80
2023-02-08T11:19:01.728Z,9.90
2023-02-08T11:24:46.110Z,13.00
2023-02-08T11:30:17.674Z,11.20
2023-02-08T11:35:35.146Z,11.40
2023-02-08T11:40:50.308Z,14.60
2023-02-08T11:46:10.091Z,16.00
2023-02-08T11:51:24.537Z,18.10
2023-02-08T11:56:34.355Z,17.00
2023-02-08T12:01:42.596Z,15.80
2023-02-08T12:07:13.998Z,16.40
2023-02-08T12:12:59.693Z,16.20
2023-02-08T12:18:50.929Z,16.30
2023-02-08T12:24:03.467Z,16.20
2023-02-08T12:29:22.543Z,20.90
2023-02-08T12:34:44.274Z,22.30
2023-02-08T12:40:37.757Z,15.60
2023-02-08T12:45:59.561Z,16.50
2023-02-08T12:51:21.752Z,16.20
2023-02-08T12:56:34.381Z,14.70
2023-02-08T13:01:43.520Z,14.10
2023-02-08T13:06:56.613Z,15.30
2023-02-08T13:12:08.996Z,16.80
2023-02-08T13:17:16.196Z,16.00
2023-02-08T13:22:21.604Z,14.90
2023-02-08T13:27:24.669Z,13.60
2023-02-08T13:32:43.550Z,13.90
2023-02-08T13:37:53.499Z,35.10
2023-02-08T13:43:03.982Z,14.90
2023-02-08T13:48:12.112Z,16.00
2023-02-08T13:53:17.674Z,13.30
2023-02-08T13:58:36.110Z,14.00
2023-02-08T14:03:39.652Z,15.40
2023-02-08T14:09:10.622Z,17.40
2023-02-08T14:14:14.431Z,12.80
2023-02-08T14:19:18.378Z,19.30
2023-02-08T14:24:26.788Z,12.30
2023-02-08T14:29:31.020Z,13.50
2023-02-08T14:34:38.325Z,16.80
2023-02-08T14:39:41.432Z,11.20
2023-02-08T14:44:49.049Z,12.20
2023-02-08T14:50:14.415Z,14.10
2023-02-08T14:55:26.933Z,10.30
2023-02-08T15:00:34.444Z,14.00
2023-02-08T15:05:58.907Z,12.40
2023-02-08T15:11:02.219Z,10.30
2023-02-08T15:16:14.817Z,92.50
2023-02-08T15:26:24.335Z,16.90
2023-02-08T15:31:32.973Z,14.20
2023-02-08T15:36:37.826Z,15.70
2023-02-08T15:41:41.436Z,16.70
2023-02-08T15:46:46.594Z,25.60
2023-02-08T15:51:51.305Z,20.50
2023-02-08T15:57:01.469Z,18.60
2023-02-08T16:02:33.894Z,14.90
2023-02-08T16:07:40.087Z,19.50
2023-02-08T16:12:45.140Z,32.20
2023-02-08T16:17:49.254Z,18.00
2023-02-08T16:23:00.965Z,77.10
2023-02-08T16:28:06.198Z,36.40
2023-02-08T16:33:09.965Z,23.90
2023-02-08T16:38:24.310Z,20.40
2023-02-08T16:43:35.895Z,45.00
2023-02-08T16:48:42.863Z,20.00
2023-02-08T16:53:48.280Z,24.30
2023-02-08T16:58:51.794Z,34.70
2023-02-08T17:03:55.351Z,19.00
2023-02-08T17:09:00.358Z,14.00
2023-02-08T17:14:05.637Z,12.50
2023-02-08T17:19:17.595Z,14.30
2023-02-08T17:24:22.272Z,14.40
2023-02-08T17:29:25.385Z,14.20
2023-02-08T17:34:28.786Z,40.80
2023-02-08T17:39:32.303Z,21.30
2023-02-08T17:44:35.405Z,20.40
2023-02-08T17:54:45.675Z,22.60
2023-02-08T17:59:48.920Z,22.50
2023-02-08T18:04:52.845Z,15.60
2023-02-08T18:09:56.360Z,32.80
2023-02-08T18:14:59.776Z,48.10
2023-02-08T18:20:04.383Z,135.20
2023-02-08T18:25:10.881Z,108.10
2023-02-08T18:30:16.119Z,53.10
2023-02-08T18:35:20.534Z,30.70
2023-02-08T18:40:24.819Z,24.70
2023-02-08T18:45:28.849Z,28.60
2023-02-08T18:50:33.180Z,23.50
2023-02-08T18:55:39.672Z,19.90
2023-02-08T19:00:43.498Z,22.70
2023-02-08T19:05:50.177Z,25.80
2023-02-08T19:10:54.269Z,23.50
2023-02-08T19:15:58.659Z,29.40
2023-02-08T19:21:08.916Z,22.90
2023-02-08T19:26:18.824Z,30.60
2023-02-08T19:31:24.273Z,24.60
2023-02-08T19:36:38.137Z,26.60
2023-02-08T19:41:42.031Z,36.00
2023-02-08T19:46:54.960Z,52.80
2023-02-08T19:51:58.581Z,56.50
2023-02-08T19:57:01.752Z,40.90
2023-02-08T20:02:05.446Z,50.20
2023-02-08T20:07:09.655Z,49.90
2023-02-08T20:12:14.085Z,50.20
2023-02-08T20:17:17.901Z,39.40
2023-02-08T20:22:21.315Z,36.10
2023-02-08T20:27:25.354Z,39.50
2023-02-08T20:32:29.876Z,41.20
2023-02-08T20:37:33.708Z,34.70
2023-02-08T20:42:37.493Z,32.30
2023-02-08T20:47:46.414Z,47.30
2023-02-08T20:52:49.889Z,52.90
2023-02-08T21:02:56.514Z,23.70
2023-02-08T21:08:00.644Z,29.50
2023-02-08T21:13:04.665Z,35.60
2023-02-08T21:18:08.118Z,20.50
2023-02-08T21:23:11.406Z,49.50
2023-02-08T21:38:22.136Z,30.10
2023-02-08T21:43:25.391Z,38.30
2023-02-08T21:48:28.752Z,27.80
2023-02-08T21:58:53.191Z,23.10
2023-02-08T22:08:59.530Z,20.50
2023-02-08T22:14:03.328Z,25.00
2023-02-08T22:19:08.709Z,23.40
2023-02-08T22:24:13.226Z,14.30
2023-02-08T22:29:16.818Z,13.80
2023-02-08T22:34:20.673Z,20.00
2023-02-08T22:39:24.403Z,17.60
2023-02-08T22:44:27.907Z,12.10
2023-02-08T22:49:31.630Z,9.60
2023-02-08T22:54:35.457Z,26.90
2023-02-08T22:59:39.796Z,17.10
2023-02-08T23:04:43.000Z,15.00
2023-02-08T23:09:47.164Z,14.80
2023-02-08T23:14:50.333Z,20.40
2023-02-08T23:19:53.667Z,20.60
2023-02-08T23:24:57.055Z,15.00
2023-02-08T23:35:04.530Z,26.40
2023-02-08T23:40:08.778Z,38.00
2023-02-08T23:45:12.254Z,73.50
2023-02-08T23:50:16.064Z,77.00
2023-02-08T23:55:19.274Z,48.80
